Time;durP1;ratioP1;P1;durP2;ratioP2;P2;SDS_P1;SDS_P2;PMS_P1;PMS_P2;Temp;Humidity;BMP_temperature;BMP_pressure;BME280_temperature;BME280_humidity;BME280_pressure;Samples;Min_cycle;Max_cycle;Signal;HPM_P1;HPM_P2
2021/04/17 00:02:13;;;;;;;4.77;3.13;;;7.60;99.90;;;;;;5035452;28;20199;-53
2021/04/17 00:04:40;;;;;;;5.97;3.47;;;7.60;99.90;;;;;;5027540;28;20195;-52
2021/04/17 00:07:08;;;;;;;5.00;3.13;;;7.70;99.90;;;;;;5028808;28;20264;-53
2021/04/17 00:09:34;;;;;;;4.30;3.10;;;7.50;99.90;;;;;;5040206;28;20246;-52
2021/04/17 00:12:05;;;;;;;3.87;2.60;;;7.50;99.90;;;;;;5029726;28;20199;-52
2021/04/17 00:14:35;;;;;;;6.00;3.13;;;7.50;99.90;;;;;;5033719;28;20202;-53
2021/04/17 00:17:10;;;;;;;4.63;3.07;;;7.40;99.90;;;;;;5033254;28;20203;-52
2021/04/17 00:19:38;;;;;;;6.37;3.33;;;7.40;99.90;;;;;;5029682;28;20275;-52
2021/04/17 00:22:04;;;;;;;11.90;3.33;;;7.20;99.90;;;;;;5031713;28;20959;-52
2021/04/17 00:24:31;;;;;;;6.80;4.63;;;7.20;1.00;;;;;;5029823;28;20202;-52
2021/04/17 00:26:57;;;;;;;5.03;2.90;;;7.00;1.00;;;;;;5029994;28;20342;-52
2021/04/17 00:29:24;;;;;;;7.37;3.73;;;7.10;1.00;;;;;;5024806;28;20229;-52
2021/04/17 00:31:50;;;;;;;5.47;3.37;;;7.10;1.00;;;;;;5032428;28;20227;-52
2021/04/17 00:34:17;;;;;;;7.70;4.23;;;7.10;1.00;;;;;;5030807;28;20223;-52
2021/04/17 00:36:43;;;;;;;6.43;3.90;;;7.20;1.00;;;;;;5028945;28;20224;-52
2021/04/17 00:39:10;;;;;;;5.77;3.60;;;7.20;1.00;;;;;;5030398;28;20229;-52
2021/04/17 00:41:36;;;;;;;7.97;4.23;;;7.30;1.00;;;;;;5032991;28;20469;-52
2021/04/17 00:44:04;;;;;;;7.87;3.90;;;7.40;99.90;;;;;;5033447;28;20261;-52
2021/04/17 00:46:31;;;;;;;7.30;3.63;;;7.20;99.90;;;;;;5032202;28;20285;-52
2021/04/17 00:48:58;;;;;;;9.07;4.10;;;7.10;1.00;;;;;;5028921;28;20313;-52
2021/04/17 00:51:24;;;;;;;6.70;3.90;;;6.90;99.90;;;;;;5030009;28;20702;-52
2021/04/17 00:53:51;;;;;;;6.90;4.10;;;6.90;99.90;;;;;;5030249;28;20234;-53
2021/04/17 00:56:19;;;;;;;6.03;3.43;;;6.90;99.90;;;;;;5027845;28;20313;-53
2021/04/17 00:58:46;;;;;;;8.30;3.80;;;6.90;99.90;;;;;;5032604;28;20337;-52
2021/04/17 01:01:12;;;;;;;6.43;3.97;;;6.90;99.90;;;;;;5028248;28;20591;-52
2021/04/17 01:04:02;;;;;;;6.87;3.60;;;6.90;99.90;;;;;;5024062;28;20219;-53
2021/04/17 01:06:46;;;;;;;4.97;3.47;;;7.10;99.90;;;;;;5024698;28;20228;-52
2021/04/17 01:09:15;;;;;;;7.63;3.83;;;7.10;99.90;;;;;;5032178;28;20247;-52
2021/04/17 01:11:57;;;;;;;4.40;3.40;;;7.00;99.90;;;;;;5027676;28;20298;-53
2021/04/17 01:14:25;;;;;;;5.87;3.83;;;7.00;99.90;;;;;;5035279;28;20259;-53
2021/04/17 01:16:53;;;;;;;7.87;4.33;;;7.00;99.90;;;;;;5036738;28;20631;-53
2021/04/17 01:19:38;;;;;;;6.73;3.47;;;7.20;99.90;;;;;;5038839;28;20234;-52
2021/04/17 01:22:10;;;;;;;6.80;4.07;;;7.10;99.90;;;;;;5035387;28;20847;-52
2021/04/17 01:24:41;;;;;;;7.23;3.87;;;7.10;99.90;;;;;;5036364;28;20278;-53
2021/04/17 01:27:07;;;;;;;5.20;3.93;;;6.90;99.90;;;;;;5036921;28;20248;-53
2021/04/17 01:29:36;;;;;;;6.07;3.87;;;6.80;99.90;;;;;;5033176;28;20608;-52
2021/04/17 01:32:04;;;;;;;6.60;3.73;;;6.70;99.90;;;;;;5031406;28;20207;-52
2021/04/17 01:34:31;;;;;;;8.33;4.13;;;6.50;1.00;;;;;;5028433;28;20225;-52
2021/04/17 01:36:58;;;;;;;8.23;3.93;;;6.60;1.00;;;;;;5029532;28;20641;-52
2021/04/17 01:39:26;;;;;;;5.90;3.77;;;6.60;1.00;;;;;;5035650;28;20196;-52
2021/04/17 01:42:00;;;;;;;12.17;4.27;;;6.60;1.00;;;;;;5034779;28;20611;-52
2021/04/17 01:44:32;;;;;;;6.90;3.57;;;6.60;1.00;;;;;;5033939;28;20701;-52
2021/04/17 01:47:05;;;;;;;5.60;3.57;;;6.50;1.00;;;;;;5034272;28;20287;-52
2021/04/17 01:49:37;;;;;;;7.10;3.80;;;6.60;1.00;;;;;;5033188;28;20197;-52
2021/04/17 01:52:05;;;;;;;6.20;4.27;;;6.50;1.00;;;;;;5028514;28;20206;-52
2021/04/17 01:54:43;;;;;;;6.40;4.20;;;6.40;1.00;;;;;;5033167;28;20256;-52
2021/04/17 01:57:13;;;;;;;13.50;4.40;;;6.40;1.00;;;;;;5033457;28;20201;-53
2021/04/17 01:59:40;;;;;;;5.97;3.17;;;6.30;1.00;;;;;;5029515;28;20757;-52
2021/04/17 02:02:08;;;;;;;8.07;3.80;;;6.30;1.00;;;;;;5033770;28;20217;-52
2021/04/17 02:04:35;;;;;;;6.73;3.80;;;6.30;80.90;;;;;;5032029;28;20597;-52
2021/04/17 02:07:03;;;;;;;7.07;4.10;;;6.20;1.00;;;;;;5029316;28;20359;-52
2021/04/17 02:09:30;;;;;;;5.17;3.63;;;6.20;99.90;;;;;;5034141;28;20226;-51
2021/04/17 02:11:56;;;;;;;8.00;4.07;;;6.10;99.90;;;;;;5031790;28;20240;-51
2021/04/17 02:14:22;;;;;;;6.37;3.73;;;6.20;1.00;;;;;;5029673;28;20243;-52
2021/04/17 02:17:02;;;;;;;8.97;3.53;;;6.00;99.90;;;;;;5036138;28;20209;-52
2021/04/17 02:19:39;;;;;;;9.23;3.80;;;6.00;1.00;;;;;;5037629;28;20299;-52
2021/04/17 02:22:07;;;;;;;11.03;3.93;;;6.00;1.00;;;;;;5038382;28;20247;-53
2021/04/17 02:24:34;;;;;;;7.27;3.60;;;5.80;1.00;;;;;;5030064;28;20221;-52
2021/04/17 02:27:00;;;;;;;5.70;3.43;;;5.80;1.00;;;;;;5034043;28;20329;-52
2021/04/17 02:29:26;;;;;;;8.17;3.70;;;5.80;1.00;;;;;;5032672;28;20296;-52
2021/04/17 02:31:53;;;;;;;5.70;3.33;;;5.80;1.00;;;;;;5030850;28;20755;-52
2021/04/17 02:34:21;;;;;;;9.77;3.80;;;5.90;1.00;;;;;;5031295;28;20244;-52
2021/04/17 02:36:47;;;;;;;7.03;3.70;;;5.80;1.00;;;;;;5031368;28;20563;-52
2021/04/17 02:39:13;;;;;;;6.50;4.27;;;5.80;1.00;;;;;;5031787;28;20307;-52
2021/04/17 02:41:39;;;;;;;5.57;3.63;;;5.70;1.00;;;;;;5033648;28;21609;-52
2021/04/17 02:44:06;;;;;;;10.00;4.17;;;5.60;1.00;;;;;;5031895;28;20205;-52
2021/04/17 02:46:33;;;;;;;5.50;3.40;;;5.60;1.00;;;;;;5034721;28;20633;-53
2021/04/17 02:48:59;;;;;;;7.10;3.57;;;5.60;1.00;;;;;;5031193;28;20224;-52
2021/04/17 02:51:26;;;;;;;5.77;3.30;;;5.80;1.00;;;;;;5028345;28;20687;-52
2021/04/17 02:53:52;;;;;;;6.00;3.70;;;5.80;1.00;;;;;;5032992;28;20314;-52
2021/04/17 02:56:19;;;;;;;5.30;3.67;;;5.70;1.00;;;;;;5030048;28;21676;-52
2021/04/17 02:58:46;;;;;;;6.90;3.20;;;5.60;1.00;;;;;;5031651;28;20559;-52
2021/04/17 03:01:12;;;;;;;6.80;3.77;;;5.70;1.00;;;;;;5033789;28;20228;-52
2021/04/17 03:03:39;;;;;;;5.07;3.43;;;5.80;1.00;;;;;;5028030;28;20240;-51
2021/04/17 03:06:06;;;;;;;5.77;3.27;;;5.80;1.00;;;;;;5030525;28;20212;-52
2021/04/17 03:08:32;;;;;;;6.20;3.43;;;5.80;1.00;;;;;;5030363;28;20252;-52
2021/04/17 03:10:59;;;;;;;5.07;3.27;;;5.80;1.00;;;;;;5032239;28;20744;-52
2021/04/17 03:13:26;;;;;;;7.50;3.73;;;5.70;1.00;;;;;;5032433;28;20213;-52
2021/04/17 03:15:53;;;;;;;6.40;3.60;;;5.90;1.00;;;;;;5032709;28;20196;-52
2021/04/17 03:18:19;;;;;;;4.70;3.13;;;5.90;1.00;;;;;;5029635;28;20192;-52
2021/04/17 03:20:48;;;;;;;4.53;2.63;;;5.90;1.00;;;;;;5033016;28;20289;-52
2021/04/17 03:23:14;;;;;;;8.13;3.20;;;5.80;1.00;;;;;;5030399;28;20224;-53
2021/04/17 03:25:41;;;;;;;7.90;4.20;;;5.80;1.00;;;;;;5032204;28;20228;-54
2021/04/17 03:28:08;;;;;;;4.23;3.17;;;5.70;1.00;;;;;;5032227;28;20244;-52
2021/04/17 03:30:34;;;;;;;7.40;3.37;;;5.80;1.00;;;;;;5029119;28;20232;-52
2021/04/17 03:33:02;;;;;;;5.83;3.53;;;5.70;1.00;;;;;;5034027;28;20213;-52
2021/04/17 03:35:30;;;;;;;5.57;3.43;;;5.70;1.00;;;;;;5029893;28;20250;-53
2021/04/17 03:37:58;;;;;;;6.47;3.27;;;5.50;1.00;;;;;;5028998;28;20255;-53
2021/04/17 03:40:24;;;;;;;5.67;3.50;;;5.60;1.00;;;;;;5029514;28;20379;-53
2021/04/17 03:42:51;;;;;;;6.83;3.20;;;5.50;1.00;;;;;;5033594;28;20279;-54
2021/04/17 03:45:18;;;;;;;6.60;4.37;;;5.60;1.00;;;;;;5031467;28;20242;-53
2021/04/17 03:47:44;;;;;;;9.00;4.20;;;5.50;1.00;;;;;;5023799;28;21580;-53
2021/04/17 03:50:13;;;;;;;6.67;3.70;;;5.50;1.00;;;;;;5028461;28;20192;-53
2021/04/17 03:52:40;;;;;;;6.73;3.63;;;5.50;1.00;;;;;;5028387;28;20192;-53
2021/04/17 03:55:10;;;;;;;6.97;3.53;;;5.40;99.90;;;;;;5028076;28;20327;-52
2021/04/17 03:57:37;;;;;;;7.77;3.90;;;5.40;99.90;;;;;;5025148;28;20252;-53
2021/04/17 04:00:05;;;;;;;7.73;2.97;;;5.40;99.90;;;;;;5029158;28;20304;-53
2021/04/17 04:02:32;;;;;;;7.30;3.20;;;5.50;99.90;;;;;;5024530;28;20189;-53
2021/04/17 04:04:59;;;;;;;4.73;3.20;;;5.50;99.90;;;;;;5032998;28;20197;-53
2021/04/17 04:07:25;;;;;;;6.50;3.10;;;5.30;99.90;;;;;;5032477;28;20193;-53
2021/04/17 04:09:51;;;;;;;6.03;3.47;;;5.30;1.00;;;;;;5031407;28;20291;-53
2021/04/17 04:12:17;;;;;;;6.33;3.20;;;5.40;1.00;;;;;;5034360;28;20295;-53
2021/04/17 04:14:44;;;;;;;4.90;3.27;;;5.30;1.00;;;;;;5033555;28;20266;-53
2021/04/17 04:17:10;;;;;;;4.33;3.23;;;5.20;1.00;;;;;;5024446;28;20213;-52
2021/04/17 04:19:36;;;;;;;5.43;3.03;;;5.30;1.00;;;;;;5030400;28;20296;-52
2021/04/17 04:22:03;;;;;;;6.40;3.07;;;5.30;1.00;;;;;;5031144;28;20288;-53
2021/04/17 04:24:29;;;;;;;6.20;2.93;;;5.50;1.00;;;;;;5027092;28;20201;-53
2021/04/17 04:26:56;;;;;;;6.57;3.00;;;5.40;1.00;;;;;;5031483;28;20667;-52
2021/04/17 04:29:22;;;;;;;3.97;2.90;;;5.40;1.00;;;;;;5030349;28;20227;-53
2021/04/17 04:31:49;;;;;;;5.87;3.63;;;5.30;1.00;;;;;;5031218;28;20274;-52
2021/04/17 04:34:15;;;;;;;6.13;3.57;;;5.30;1.00;;;;;;5030952;28;20273;-52
2021/04/17 04:36:41;;;;;;;4.40;3.00;;;5.30;1.00;;;;;;5029017;28;20644;-53
2021/04/17 04:39:08;;;;;;;10.93;3.63;;;5.30;99.90;;;;;;5028299;28;20284;-53
2021/04/17 04:41:35;;;;;;;4.80;2.90;;;5.40;99.90;;;;;;5029625;28;20205;-52
2021/04/17 04:44:03;;;;;;;5.40;2.90;;;5.50;99.90;;;;;;5032924;28;20291;-53
2021/04/17 04:46:31;;;;;;;6.53;3.53;;;5.50;99.90;;;;;;5031005;28;20197;-53
2021/04/17 04:48:58;;;;;;;4.27;2.77;;;5.50;99.90;;;;;;5027588;28;20206;-53
2021/04/17 04:51:25;;;;;;;8.10;3.00;;;5.60;99.90;;;;;;5031876;28;20605;-52
2021/04/17 04:53:51;;;;;;;5.60;3.30;;;5.50;99.90;;;;;;5035100;28;20626;-52
2021/04/17 04:56:18;;;;;;;5.43;2.90;;;5.40;99.90;;;;;;5033207;28;20196;-53
2021/04/17 04:58:44;;;;;;;8.87;3.43;;;5.50;99.90;;;;;;5034837;28;20669;-53
2021/04/17 05:01:11;;;;;;;4.57;3.20;;;5.40;99.90;;;;;;5030391;28;20285;-53
2021/04/17 05:03:38;;;;;;;5.23;3.40;;;5.30;99.90;;;;;;5037409;28;22052;-52
2021/04/17 05:06:04;;;;;;;8.30;3.03;;;5.30;99.90;;;;;;5031915;28;20255;-52
2021/04/17 05:08:31;;;;;;;6.23;3.10;;;5.30;99.90;;;;;;5033358;28;20233;-52
2021/04/17 05:10:58;;;;;;;6.03;2.80;;;5.30;99.90;;;;;;5034106;28;20207;-52
2021/04/17 05:13:24;;;;;;;4.73;2.83;;;5.30;99.90;;;;;;5037366;28;20212;-52
2021/04/17 05:15:50;;;;;;;5.77;3.23;;;5.40;99.90;;;;;;5034247;28;20197;-52
2021/04/17 05:18:17;;;;;;;6.97;3.30;;;5.40;99.90;;;;;;5031532;28;20290;-53
2021/04/17 05:20:43;;;;;;;6.10;3.40;;;5.40;99.90;;;;;;5034710;28;20298;-53
2021/04/17 05:23:10;;;;;;;4.27;3.07;;;5.30;99.90;;;;;;5029600;28;20698;-53
2021/04/17 05:25:36;;;;;;;5.00;3.20;;;5.50;99.90;;;;;;5036364;28;20197;-51
2021/04/17 05:28:03;;;;;;;5.30;3.30;;;5.30;99.90;;;;;;5032250;28;20228;-52
2021/04/17 05:30:30;;;;;;;8.67;3.53;;;5.40;99.90;;;;;;5037683;28;20196;-51
2021/04/17 05:32:56;;;;;;;6.97;2.97;;;5.40;99.90;;;;;;5035443;28;20192;-52
2021/04/17 05:35:23;;;;;;;7.17;3.10;;;5.50;99.90;;;;;;5032059;28;20222;-52
2021/04/17 05:37:49;;;;;;;6.73;3.13;;;5.50;99.90;;;;;;5030913;28;20197;-52
2021/04/17 05:40:15;;;;;;;8.47;3.67;;;5.60;99.90;;;;;;5036659;28;20258;-52
2021/04/17 05:42:45;;;;;;;6.83;3.30;;;5.60;99.90;;;;;;5036255;28;20193;-52
2021/04/17 05:45:13;;;;;;;4.83;3.20;;;5.70;99.90;;;;;;5038047;28;20201;-51
2021/04/17 05:47:39;;;;;;;4.67;3.10;;;5.70;99.90;;;;;;5032695;28;20205;-52
2021/04/17 05:50:06;;;;;;;4.70;2.87;;;5.90;99.90;;;;;;5031231;28;20494;-53
2021/04/17 05:52:33;;;;;;;4.10;3.17;;;5.90;99.90;;;;;;5025332;28;20334;-54
2021/04/17 05:54:59;;;;;;;5.43;3.70;;;6.10;99.90;;;;;;5030897;28;20677;-53
2021/04/17 05:57:25;;;;;;;5.47;3.30;;;5.90;99.90;;;;;;5030614;28;20891;-52
2021/04/17 05:59:52;;;;;;;5.40;3.23;;;6.00;99.90;;;;;;5033604;28;20276;-53
2021/04/17 06:02:19;;;;;;;6.57;3.87;;;6.10;99.90;;;;;;5029019;28;20228;-53
2021/04/17 06:04:46;;;;;;;5.63;3.27;;;6.20;99.90;;;;;;5032826;28;20287;-52
2021/04/17 06:07:12;;;;;;;7.10;3.87;;;6.20;99.90;;;;;;5034245;28;20213;-52
2021/04/17 06:09:39;;;;;;;4.77;3.70;;;6.20;99.90;;;;;;5032765;28;20212;-52
2021/04/17 06:12:06;;;;;;;5.03;3.00;;;6.20;99.90;;;;;;5026439;28;20231;-52
2021/04/17 06:14:32;;;;;;;5.43;3.77;;;6.30;99.90;;;;;;5031381;28;20248;-51
2021/04/17 06:16:58;;;;;;;7.00;3.43;;;6.40;99.90;;;;;;5031130;28;20220;-52
2021/04/17 06:19:25;;;;;;;4.47;2.87;;;6.60;99.90;;;;;;5033196;28;20193;-52
2021/04/17 06:21:52;;;;;;;7.03;3.60;;;6.50;99.90;;;;;;5040327;28;20522;-53
2021/04/17 06:24:18;;;;;;;5.23;3.17;;;6.80;99.90;;;;;;5035224;28;20303;-53
2021/04/17 06:26:44;;;;;;;6.10;3.70;;;7.00;99.90;;;;;;5034109;28;20473;-52
2021/04/17 06:29:11;;;;;;;7.80;3.13;;;6.90;1.00;;;;;;5032060;28;20205;-52
2021/04/17 06:31:37;;;;;;;7.50;3.07;;;7.10;1.00;;;;;;5031879;28;20194;-52
2021/04/17 06:34:04;;;;;;;4.53;3.30;;;7.10;1.00;;;;;;5029761;28;20217;-53
2021/04/17 06:36:30;;;;;;;5.97;2.77;;;7.20;1.00;;;;;;5030625;28;20680;-52
2021/04/17 06:38:56;;;;;;;5.20;3.40;;;7.30;99.90;;;;;;5032269;28;20627;-52
2021/04/17 06:41:23;;;;;;;6.43;3.00;;;7.40;99.90;;;;;;5030277;28;20297;-52
2021/04/17 06:43:50;;;;;;;10.30;3.07;;;7.50;5.90;;;;;;5031954;28;20639;-52
2021/04/17 06:46:19;;;;;;;4.87;3.50;;;7.50;1.00;;;;;;5035267;28;20205;-52
2021/04/17 06:48:46;;;;;;;5.17;3.17;;;7.80;1.00;;;;;;5033364;28;20227;-52
2021/04/17 06:51:18;;;;;;;4.77;3.40;;;7.90;1.00;;;;;;5016380;28;20199;-52
2021/04/17 06:53:45;;;;;;;6.77;3.37;;;8.00;1.00;;;;;;5031524;28;20984;-52
2021/04/17 06:56:12;;;;;;;6.17;3.23;;;8.20;1.00;;;;;;5029179;28;20268;-52
2021/04/17 06:58:40;;;;;;;4.67;3.20;;;8.30;99.90;;;;;;5029881;28;20197;-52
2021/04/17 07:01:07;;;;;;;6.03;2.93;;;8.40;99.90;;;;;;5031694;28;20231;-52
2021/04/17 07:03:34;;;;;;;4.07;3.17;;;8.40;99.90;;;;;;5034910;28;20552;-52
2021/04/17 07:06:01;;;;;;;5.77;3.10;;;8.30;1.00;;;;;;5032810;28;20199;-53
2021/04/17 07:08:27;;;;;;;7.87;3.40;;;8.50;99.90;;;;;;5030260;28;20270;-53
2021/04/17 07:10:54;;;;;;;8.47;3.07;;;8.90;8.30;;;;;;5031479;28;20579;-53
2021/04/17 07:13:21;;;;;;;6.90;3.13;;;8.90;82.50;;;;;;5036850;28;20221;-53
2021/04/17 07:15:47;;;;;;;8.57;3.23;;;8.80;1.00;;;;;;5033202;28;20196;-52
2021/04/17 07:18:25;;;;;;;5.57;3.17;;;9.00;1.00;;;;;;5037184;28;20196;-52
2021/04/17 07:20:53;;;;;;;11.10;3.63;;;9.00;1.00;;;;;;5033064;28;20213;-52
2021/04/17 07:23:38;;;;;;;5.30;3.00;;;9.10;1.00;;;;;;5031175;28;20738;-52
2021/04/17 07:26:19;;;;;;;3.80;2.40;;;9.40;99.90;;;;;;5031166;28;20767;-53
2021/04/17 07:28:55;;;;;;;6.10;3.00;;;9.30;99.90;;;;;;5031091;28;20210;-53
2021/04/17 07:31:26;;;;;;;4.67;2.50;;;9.30;99.90;;;;;;5034485;28;20198;-52
2021/04/17 07:33:53;;;;;;;3.90;2.33;;;9.30;99.90;;;;;;5028415;28;20483;-52
2021/04/17 07:36:21;;;;;;;4.83;3.07;;;9.50;99.90;;;;;;5034147;28;20202;-52
2021/04/17 07:38:47;;;;;;;6.13;2.77;;;9.50;99.90;;;;;;5031948;28;20201;-53
2021/04/17 07:41:16;;;;;;;5.10;2.50;;;9.50;99.90;;;;;;5031260;28;20308;-52
2021/04/17 07:43:54;;;;;;;5.00;2.10;;;9.70;99.90;;;;;;5028074;28;20444;-53
2021/04/17 07:46:40;;;;;;;3.07;2.07;;;9.70;99.90;;;;;;5029794;28;20282;-53
2021/04/17 07:49:19;;;;;;;6.60;2.73;;;10.20;99.50;;;;;;5031331;28;20317;-53
2021/04/17 07:52:09;;;;;;;4.07;2.43;;;10.30;99.30;;;;;;5030837;28;20231;-53
2021/04/17 07:54:37;;;;;;;3.83;2.17;;;10.70;98.70;;;;;;5033592;28;20322;-52
2021/04/17 07:57:06;;;;;;;5.77;2.20;;;10.90;94.20;;;;;;5032809;28;20197;-53
2021/04/17 07:59:33;;;;;;;4.67;2.03;;;11.20;92.40;;;;;;5032712;28;20202;-52
2021/04/17 08:02:00;;;;;;;4.30;2.47;;;11.00;91.10;;;;;;5034497;28;20193;-53
2021/04/17 08:04:28;;;;;;;2.53;1.97;;;11.00;92.00;;;;;;5033183;28;20232;-53
2021/04/17 08:06:56;;;;;;;2.73;1.83;;;11.00;90.70;;;;;;5027746;28;20201;-52
2021/04/17 08:09:24;;;;;;;2.43;1.60;;;11.20;81.50;;;;;;5034338;28;20295;-51
2021/04/17 08:11:53;;;;;;;5.20;2.10;;;11.20;76.70;;;;;;5030238;28;20630;-52
2021/04/17 08:14:25;;;;;;;3.27;1.80;;;11.40;74.00;;;;;;5036438;28;20295;-52
2021/04/17 08:16:53;;;;;;;1.60;1.43;;;11.50;75.00;;;;;;5028598;28;20203;-52
2021/04/17 08:19:20;;;;;;;3.37;1.70;;;11.70;68.10;;;;;;5029788;28;20242;-51
2021/04/17 08:21:49;;;;;;;4.87;1.53;;;11.70;65.40;;;;;;5033306;28;20301;-51
2021/04/17 08:24:21;;;;;;;6.20;1.70;;;12.20;61.10;;;;;;5036667;28;20652;-52
2021/04/17 08:26:51;;;;;;;1.80;1.37;;;12.10;57.20;;;;;;5024734;28;20242;-52
2021/04/17 08:29:56;;;;;;;2.23;1.30;;;12.00;55.90;;;;;;5034510;28;20217;-52
2021/04/17 08:32:46;;;;;;;2.30;1.70;;;12.20;54.00;;;;;;5032875;28;20211;-53
2021/04/17 08:35:19;;;;;;;3.63;1.60;;;12.20;53.40;;;;;;5037715;28;20203;-53
2021/04/17 08:37:52;;;;;;;1.43;1.20;;;12.30;49.50;;;;;;5029630;28;20201;-52
2021/04/17 08:40:37;;;;;;;3.57;1.23;;;12.40;50.90;;;;;;5035615;28;20385;-52
2021/04/17 08:43:18;;;;;;;2.57;1.20;;;12.30;49.40;;;;;;5039417;28;20298;-52
2021/04/17 08:46:14;;;;;;;2.60;1.37;;;12.60;46.30;;;;;;5032912;28;20200;-53
2021/04/17 08:49:01;;;;;;;3.57;1.60;;;12.90;48.90;;;;;;5031976;28;20256;-53
2021/04/17 08:51:29;;;;;;;2.67;1.83;;;13.20;43.80;;;;;;5023858;28;20302;-52
2021/04/17 08:54:01;;;;;;;3.83;1.37;;;13.10;43.60;;;;;;5030642;28;20299;-51
2021/04/17 08:56:59;;;;;;;4.23;1.53;;;13.00;42.30;;;;;;5031995;28;20202;-52
2021/04/17 08:59:31;;;;;;;2.23;1.40;;;13.20;39.40;;;;;;5027199;28;20194;-52
2021/04/17 09:02:01;;;;;;;2.77;1.40;;;13.20;39.90;;;;;;5030761;28;20606;-52
2021/04/17 09:04:28;;;;;;;2.77;1.43;;;13.20;41.20;;;;;;5026110;28;20600;-52
2021/04/17 09:06:57;;;;;;;2.57;1.30;;;13.40;40.00;;;;;;5025760;28;20203;-52
2021/04/17 09:09:25;;;;;;;1.83;1.37;;;13.10;39.40;;;;;;5030545;28;20258;-52
2021/04/17 09:12:12;;;;;;;3.33;1.70;;;13.50;38.50;;;;;;5033478;28;20199;-52
2021/04/17 09:14:41;;;;;;;3.53;1.30;;;13.70;34.80;;;;;;5026321;28;20254;-53
2021/04/17 09:17:35;;;;;;;2.33;1.57;;;13.20;34.80;;;;;;5029374;28;20289;-52
2021/04/17 09:20:10;;;;;;;1.50;1.40;;;13.60;37.20;;;;;;5031995;28;20200;-53
2021/04/17 09:22:43;;;;;;;2.37;1.70;;;14.00;30.50;;;;;;5036319;28;20204;-52
2021/04/17 09:25:12;;;;;;;2.13;1.57;;;13.80;28.80;;;;;;5041244;28;20240;-53
2021/04/17 09:27:43;;;;;;;6.07;1.77;;;13.90;30.10;;;;;;5034804;28;20232;-53
2021/04/17 09:30:18;;;;;;;4.37;1.70;;;13.40;29.70;;;;;;5045426;28;20656;-53
2021/04/17 09:32:56;;;;;;;3.80;1.60;;;14.10;29.70;;;;;;5033055;28;20214;-52
2021/04/17 09:35:37;;;;;;;2.37;1.60;;;14.60;27.90;;;;;;5035122;28;20226;-52
2021/04/17 09:38:09;;;;;;;2.97;1.63;;;14.10;25.20;;;;;;5036326;28;20225;-53
2021/04/17 09:40:40;;;;;;;2.40;1.50;;;13.80;22.40;;;;;;5040923;28;20577;-52
2021/04/17 09:43:19;;;;;;;9.83;2.13;;;13.70;26.30;;;;;;5043244;28;20254;-53
2021/04/17 09:45:46;;;;;;;3.53;1.80;;;13.80;27.20;;;;;;5033729;28;20270;-53
2021/04/17 09:48:14;;;;;;;1.73;1.33;;;14.30;22.30;;;;;;5031223;28;20198;-53
2021/04/17 09:50:40;;;;;;;3.43;1.83;;;15.10;23.50;;;;;;5046001;28;20211;-53
2021/04/17 09:53:28;;;;;;;3.40;1.50;;;14.90;19.10;;;;;;5031437;28;20208;-53
2021/04/17 09:56:03;;;;;;;3.20;1.40;;;14.00;23.40;;;;;;5043523;28;20667;-53
2021/04/17 09:58:33;;;;;;;2.83;1.83;;;13.80;21.20;;;;;;5033979;28;20992;-53
2021/04/17 10:01:15;;;;;;;2.53;1.70;;;14.30;17.70;;;;;;5037585;28;20709;-53
2021/04/17 10:03:45;;;;;;;3.27;1.53;;;14.30;16.70;;;;;;5034545;28;20232;-52
2021/04/17 10:06:29;;;;;;;4.37;1.73;;;14.20;13.80;;;;;;5034070;28;20222;-53
2021/04/17 10:09:10;;;;;;;2.87;1.60;;;14.10;17.00;;;;;;5036170;28;20223;-53
2021/04/17 10:11:38;;;;;;;2.70;1.50;;;14.00;15.40;;;;;;5036798;28;20252;-53
2021/04/17 10:14:06;;;;;;;3.73;1.60;;;14.20;15.10;;;;;;5030632;28;20401;-53
2021/04/17 10:16:36;;;;;;;3.73;1.30;;;14.30;14.80;;;;;;5034430;28;20259;-53
2021/04/17 10:19:07;;;;;;;3.93;1.50;;;14.50;14.10;;;;;;5033640;28;20206;-52
2021/04/17 10:21:35;;;;;;;1.43;1.03;;;14.60;14.50;;;;;;5034670;28;20211;-52
2021/04/17 10:24:17;;;;;;;2.03;1.20;;;14.90;13.00;;;;;;5035269;28;20204;-52
2021/04/17 10:26:59;;;;;;;3.93;1.50;;;14.60;10.30;;;;;;5029815;28;20224;-53
2021/04/17 10:29:46;;;;;;;1.83;1.43;;;14.30;11.10;;;;;;5033914;28;20361;-53
2021/04/17 10:32:17;;;;;;;3.17;1.50;;;14.90;10.90;;;;;;5029493;28;20315;-53
2021/04/17 10:34:49;;;;;;;2.60;1.50;;;14.10;13.20;;;;;;5035083;28;20299;-53
2021/04/17 10:37:24;;;;;;;2.73;1.50;;;14.30;11.40;;;;;;5032484;28;20727;-53
2021/04/17 10:40:01;;;;;;;3.33;1.80;;;14.30;9.90;;;;;;5035287;28;20223;-52
2021/04/17 10:42:53;;;;;;;1.50;1.40;;;14.80;11.60;;;;;;5025990;28;20647;-52
2021/04/17 10:45:47;;;;;;;1.90;1.63;;;15.00;11.30;;;;;;5029658;28;20633;-53
2021/04/17 10:48:19;;;;;;;3.60;1.47;;;14.80;9.70;;;;;;5028809;28;20264;-53
2021/04/17 10:51:03;;;;;;;1.97;1.50;;;14.40;10.40;;;;;;5029393;28;20209;-53
2021/04/17 10:53:32;;;;;;;2.00;1.10;;;14.90;10.20;;;;;;5029024;28;20206;-53
2021/04/17 10:56:01;;;;;;;1.77;1.47;;;15.30;10.30;;;;;;5025651;28;20255;-53
2021/04/17 10:58:29;;;;;;;5.40;1.77;;;15.40;6.70;;;;;;5031578;28;20256;-53
2021/04/17 11:01:01;;;;;;;5.50;1.53;;;15.20;9.00;;;;;;5025029;28;20218;-53
2021/04/17 11:03:38;;;;;;;2.00;1.30;;;15.40;9.30;;;;;;5032388;28;20598;-53
2021/04/17 11:06:16;;;;;;;2.13;1.50;;;15.50;9.00;;;;;;5030048;28;20288;-52
2021/04/17 11:08:44;;;;;;;4.63;1.63;;;15.70;8.30;;;;;;5030798;28;20653;-52
2021/04/17 11:11:12;;;;;;;2.33;1.63;;;15.80;5.80;;;;;;5027805;28;20258;-53
2021/04/17 11:13:43;;;;;;;2.53;1.67;;;15.80;5.90;;;;;;5029774;28;20294;-53
2021/04/17 11:16:12;;;;;;;2.67;1.60;;;15.70;7.20;;;;;;5032739;28;20223;-54
2021/04/17 11:18:41;;;;;;;5.47;1.60;;;15.80;6.20;;;;;;5026787;28;20191;-52
2021/04/17 11:21:10;;;;;;;2.03;1.70;;;15.90;6.50;;;;;;5028795;28;20295;-52
2021/04/17 11:23:37;;;;;;;2.53;1.40;;;16.20;8.80;;;;;;5029693;28;20368;-53
2021/04/17 11:26:18;;;;;;;2.30;1.50;;;16.10;7.00;;;;;;5034607;28;20224;-53
2021/04/17 11:28:50;;;;;;;2.97;1.83;;;16.40;6.30;;;;;;5029015;28;20675;-53
2021/04/17 11:31:22;;;;;;;2.93;1.60;;;16.70;4.40;;;;;;5032173;28;20370;-53
2021/04/17 11:33:50;;;;;;;2.90;2.00;;;16.60;6.00;;;;;;5033728;28;20506;-53
2021/04/17 11:36:20;;;;;;;4.13;2.57;;;17.20;6.10;;;;;;5029607;28;20221;-53
2021/04/17 11:38:46;;;;;;;4.40;1.77;;;16.70;4.60;;;;;;5030443;28;20186;-53
2021/04/17 11:41:13;;;;;;;3.47;1.80;;;16.50;5.00;;;;;;5030056;28;20226;-53
2021/04/17 11:43:39;;;;;;;3.47;2.20;;;16.50;5.60;;;;;;5031667;28;20332;-53
2021/04/17 11:46:06;;;;;;;4.57;2.03;;;16.30;5.30;;;;;;5029041;28;20217;-53
2021/04/17 11:48:39;;;;;;;3.17;1.60;;;15.90;3.40;;;;;;5030316;28;20308;-53
2021/04/17 11:51:05;;;;;;;3.93;1.60;;;15.10;4.70;;;;;;5025383;28;20646;-53
2021/04/17 11:53:32;;;;;;;3.83;2.23;;;15.40;9.70;;;;;;5025998;28;20321;-53
2021/04/17 11:55:59;;;;;;;2.73;1.90;;;16.20;7.50;;;;;;5033120;28;20593;-53
2021/04/17 11:58:25;;;;;;;3.37;1.40;;;16.80;7.10;;;;;;5034646;28;20296;-53
2021/04/17 12:00:51;;;;;;;3.37;1.87;;;16.20;7.80;;;;;;5031586;28;20667;-53
2021/04/17 12:03:23;;;;;;;3.40;1.90;;;15.50;8.10;;;;;;5026646;28;20193;-53
2021/04/17 12:05:51;;;;;;;3.97;1.93;;;14.70;13.00;;;;;;5030853;28;20233;-54
2021/04/17 12:08:18;;;;;;;3.07;1.60;;;15.10;12.80;;;;;;5032535;28;20899;-54
2021/04/17 12:10:45;;;;;;;3.33;1.50;;;15.40;11.60;;;;;;5027851;28;20190;-53
2021/04/17 12:13:12;;;;;;;4.40;1.90;;;15.50;11.40;;;;;;5033309;28;20196;-53
2021/04/17 12:15:39;;;;;;;4.60;2.00;;;16.00;8.80;;;;;;5029953;28;20744;-53
2021/04/17 12:18:06;;;;;;;4.23;2.03;;;16.00;9.80;;;;;;5033336;28;20202;-53
2021/04/17 12:20:33;;;;;;;2.97;1.73;;;15.40;9.90;;;;;;5031588;28;20198;-53
2021/04/17 12:22:59;;;;;;;5.07;2.00;;;15.90;9.20;;;;;;5032354;28;20272;-53
2021/04/17 12:25:26;;;;;;;5.13;2.13;;;16.10;7.30;;;;;;5034178;28;20655;-53
2021/04/17 12:27:52;;;;;;;5.50;2.30;;;16.10;7.00;;;;;;5028817;28;20269;-52
2021/04/17 12:30:20;;;;;;;4.27;1.90;;;16.10;7.20;;;;;;5029641;28;20206;-52
2021/04/17 12:32:47;;;;;;;3.43;1.90;;;16.30;8.50;;;;;;5026101;28;20259;-52
2021/04/17 12:35:15;;;;;;;3.10;1.90;;;16.00;7.10;;;;;;5023973;28;20224;-53
2021/04/17 12:37:42;;;;;;;4.07;2.17;;;16.10;6.50;;;;;;5036128;28;20269;-54
2021/04/17 12:40:11;;;;;;;3.90;1.97;;;16.20;6.50;;;;;;5032836;28;20661;-54
2021/04/17 12:42:38;;;;;;;3.97;1.97;;;16.20;7.30;;;;;;5035415;28;20207;-54
2021/04/17 12:45:06;;;;;;;6.43;2.20;;;16.80;4.90;;;;;;5029819;28;20689;-54
2021/04/17 12:47:32;;;;;;;5.93;2.17;;;16.30;5.50;;;;;;5034479;28;20584;-54
2021/04/17 12:49:59;;;;;;;3.40;1.80;;;16.80;7.50;;;;;;5030320;28;20216;-54
2021/04/17 12:52:26;;;;;;;4.43;2.00;;;16.80;5.20;;;;;;5033700;28;20553;-54
2021/04/17 12:54:53;;;;;;;3.10;1.83;;;15.70;5.80;;;;;;5032607;28;20572;-53
2021/04/17 12:57:19;;;;;;;4.87;2.07;;;15.30;8.90;;;;;;5035118;28;20198;-53
2021/04/17 12:59:45;;;;;;;6.37;2.37;;;15.20;10.30;;;;;;5031893;28;20191;-53
2021/04/17 13:02:11;;;;;;;6.23;2.20;;;15.30;12.70;;;;;;5030739;28;20195;-55
2021/04/17 13:04:38;;;;;;;3.60;1.47;;;15.00;11.90;;;;;;5032761;28;20674;-53
2021/04/17 13:07:04;;;;;;;3.00;1.97;;;15.00;13.50;;;;;;5025376;28;20201;-53
2021/04/17 13:09:32;;;;;;;4.20;1.93;;;15.00;14.40;;;;;;5036544;28;20293;-53
2021/04/17 13:11:58;;;;;;;6.10;2.10;;;15.60;13.00;;;;;;5036125;28;20264;-54